Time;durP1;ratioP1;P1;durP2;ratioP2;P2;SDS_P1;SDS_P2;PMS_P1;PMS_P2;Temp;Humidity;BMP_temperature;BMP_pressure;BME280_temperature;BME280_humidity;BME280_pressure;Samples;Min_cycle;Max_cycle;Signal;HPM_P1;HPM_P2
2023/01/14 07:06:30;;;;;;;20.48;5.32;;;;;;;6.29;100.00;100735.97;5303418;27;20755;-76
2023/01/14 07:09:02;;;;;;;13.70;4.25;;;;;;;6.26;100.00;100729.06;5296303;28;20073;-76
2023/01/14 07:11:33;;;;;;;14.88;4.53;;;;;;;6.25;100.00;100710.03;5300239;28;20034;-76
2023/01/14 07:14:04;;;;;;;15.98;4.55;;;;;;;6.27;100.00;100721.63;5300871;28;20489;-76
2023/01/14 07:16:36;;;;;;;11.27;4.35;;;;;;;6.27;100.00;100699.59;5297598;28;20024;-76
2023/01/14 07:19:07;;;;;;;13.65;4.78;;;;;;;6.30;100.00;100697.13;5300878;28;20032;-77
2023/01/14 07:21:39;;;;;;;12.45;6.03;;;;;;;6.34;100.00;100674.56;5295189;28;20031;-77
2023/01/14 07:24:13;;;;;;;10.30;4.22;;;;;;;6.37;100.00;100669.38;5280069;28;20021;-77
2023/01/14 07:26:44;;;;;;;13.07;4.40;;;;;;;6.37;100.00;100666.63;5285044;28;20024;-77
2023/01/14 07:29:16;;;;;;;8.95;3.85;;;;;;;6.40;100.00;100674.34;5299031;28;20041;-77
2023/01/14 07:31:47;;;;;;;13.90;3.88;;;;;;;6.37;100.00;100666.63;5281915;28;20028;-77
2023/01/14 07:34:18;;;;;;;14.13;4.40;;;;;;;6.43;100.00;100668.28;5284236;28;20028;-77
2023/01/14 07:36:50;;;;;;;10.90;4.78;;;;;;;6.43;100.00;100656.44;5299048;28;20024;-77
2023/01/14 07:39:21;;;;;;;12.10;3.75;;;;;;;6.44;100.00;100644.31;5287725;28;20032;-77
2023/01/14 07:41:55;;;;;;;10.35;3.72;;;;;;;6.46;100.00;100642.97;5279691;28;20024;-77
2023/01/14 07:44:27;;;;;;;12.30;4.20;;;;;;;6.47;100.00;100630.84;5279931;28;20020;-76
2023/01/14 07:46:58;;;;;;;11.88;3.75;;;;;;;6.51;100.00;100628.38;5283623;28;20051;-69
2023/01/14 07:49:29;;;;;;;13.07;4.82;;;;;;;6.52;100.00;100619.03;5278398;28;20067;-75
2023/01/14 07:52:05;;;;;;;8.85;3.58;;;;;;;6.56;100.00;100617.38;5284673;28;20075;-75
2023/01/14 07:54:37;;;;;;;13.85;3.63;;;;;;;6.53;100.00;100598.66;5271439;28;20029;-75
2023/01/14 07:57:12;;;;;;;9.60;4.32;;;;;;;6.55;100.00;100592.88;5282385;28;20021;-74
2023/01/14 07:59:43;;;;;;;10.10;3.92;;;;;;;6.59;100.00;100582.97;5282833;28;20021;-75
2023/01/14 08:02:14;;;;;;;12.70;3.72;;;;;;;6.59;100.00;100570.00;5278847;28;20046;-75
2023/01/14 08:04:46;;;;;;;8.75;3.70;;;;;;;6.64;100.00;100555.41;5278123;28;20052;-75
2023/01/14 08:07:17;;;;;;;6.60;3.35;;;;;;;6.66;100.00;100550.47;5278576;28;20143;-75
2023/01/14 08:09:48;;;;;;;8.63;3.08;;;;;;;6.65;100.00;100548.81;5282915;28;20062;-76
2023/01/14 08:12:20;;;;;;;8.73;3.20;;;;;;;6.66;100.00;100537.50;5279146;28;20391;-73
2023/01/14 08:14:51;;;;;;;7.63;3.33;;;;;;;6.67;100.00;100525.41;5278655;28;20024;-73
2023/01/14 08:17:22;;;;;;;6.57;3.53;;;;;;;6.69;100.00;100517.69;5270179;28;20057;-74
2023/01/14 08:19:54;;;;;;;6.03;2.72;;;;;;;6.71;100.00;100514.66;5264528;28;20484;-74
2023/01/14 08:22:28;;;;;;;6.50;2.88;;;;;;;6.73;100.00;100513.28;5264735;28;20025;-74
2023/01/14 08:24:59;;;;;;;6.50;3.28;;;;;;;6.76;100.00;100498.13;5263994;28;20021;-74
2023/01/14 08:27:31;;;;;;;7.43;3.00;;;;;;;6.79;100.00;100494.00;5265071;28;20460;-74
2023/01/14 08:30:03;;;;;;;8.13;2.70;;;;;;;6.82;100.00;100483.25;5278865;28;20379;-74
2023/01/14 08:32:34;;;;;;;6.60;3.00;;;;;;;6.87;100.00;100474.97;5284531;28;20040;-74
2023/01/14 08:35:06;;;;;;;7.28;3.17;;;;;;;6.99;100.00;100454.63;5278118;28;20040;-73
2023/01/14 08:37:37;;;;;;;5.57;3.30;;;;;;;6.96;100.00;100456.81;5266267;28;20024;-73
2023/01/14 08:40:09;;;;;;;5.30;2.70;;;;;;;6.98;100.00;100442.75;5280967;28;20025;-70
2023/01/14 08:42:41;;;;;;;4.22;2.42;;;;;;;6.96;100.00;100434.75;5264497;28;20025;-71
2023/01/14 08:45:12;;;;;;;11.32;10.25;;;;;;;7.03;100.00;100423.47;5264869;28;20079;-77
2023/01/14 08:47:46;;;;;;;15.15;9.77;;;;;;;7.06;100.00;100420.16;5265216;28;20032;-73
2023/01/14 08:50:20;;;;;;;5.22;2.13;;;;;;;7.10;100.00;100420.41;5264136;28;20029;-75
2023/01/14 08:52:51;;;;;;;3.60;1.95;;;;;;;7.06;100.00;100408.28;5270240;28;20025;-74
2023/01/14 08:55:23;;;;;;;3.42;2.25;;;;;;;7.13;100.00;100408.81;5285020;28;20024;-77
2023/01/14 08:57:54;;;;;;;5.07;2.00;;;;;;;7.13;100.00;100390.38;5284995;28;20024;-70
2023/01/14 09:00:25;;;;;;;3.90;2.42;;;;;;;7.16;100.00;100383.47;5282682;28;20063;-71
2023/01/14 09:02:56;;;;;;;3.67;2.60;;;;;;;7.16;100.00;100375.19;5282611;28;20021;-71
2023/01/14 09:05:31;;;;;;;4.57;2.30;;;;;;;7.18;100.00;100372.94;5276281;28;20051;-70
2023/01/14 09:19:23;;;;;;;5.70;2.63;;;;;;;7.32;100.00;100332.66;5276974;28;20040;-73
2023/01/14 09:21:54;;;;;;;5.57;2.20;;;;;;;7.28;100.00;100337.06;5268399;28;20033;-75
2023/01/14 09:24:25;;;;;;;5.70;2.55;;;;;;;7.28;100.00;100327.97;5263706;28;20025;-77
2023/01/14 09:27:00;;;;;;;5.35;2.10;;;;;;;7.34;100.00;100313.09;5263222;28;20055;-73
2023/01/14 09:29:32;;;;;;;4.93;2.20;;;;;;;7.36;100.00;100306.19;5263027;28;20031;-74
2023/01/14 09:32:10;;;;;;;3.97;2.92;;;;;;;7.43;100.00;100297.59;5263525;28;20025;-72
2023/01/14 09:34:50;;;;;;;4.60;2.58;;;;;;;7.40;100.00;100287.13;5262616;28;20032;-78
2023/01/14 09:37:23;;;;;;;8.45;2.58;;;;;;;7.49;100.00;100287.34;5262068;28;20034;-71
2023/01/14 09:40:00;;;;;;;7.45;2.33;;;;;;;7.48;100.00;100282.94;5263446;28;20527;-69
2023/01/14 09:42:41;;;;;;;4.28;2.53;;;;;;;7.48;100.00;100275.50;5262366;28;20029;-69
2023/01/14 09:45:12;;;;;;;7.95;3.20;;;;;;;7.50;100.00;100258.66;5263053;28;20071;-70
2023/01/14 09:47:44;;;;;;;6.80;2.20;;;;;;;7.54;100.00;100256.97;5263316;28;20017;-68
2023/01/14 09:50:19;;;;;;;5.55;2.60;;;;;;;8.02;100.00;100249.78;5262405;28;20029;-68
2023/01/14 09:53:22;;;;;;;13.38;3.55;;;;;;;7.80;100.00;100247.44;5262452;28;20040;-69
2023/01/14 09:56:04;;;;;;;9.45;3.90;;;;;;;7.71;100.00;100248.34;5257082;28;20033;-77
2023/01/14 09:58:39;;;;;;;10.85;4.85;;;;;;;7.66;100.00;100243.66;5263681;28;20029;-75
2023/01/14 10:01:25;;;;;;;5.53;3.67;;;;;;;7.70;100.00;100239.22;5262553;28;20025;-74
2023/01/14 10:04:26;;;;;;;5.65;2.55;;;;;;;7.67;100.00;100226.00;5261930;28;20136;-74
2023/01/14 10:06:59;;;;;;;7.78;2.72;;;;;;;7.70;100.00;100216.34;5263493;28;20044;-74
2023/01/14 10:09:35;;;;;;;5.80;3.00;;;;;;;7.70;100.00;100197.84;5262334;28;21336;-71
2023/01/14 10:12:15;;;;;;;7.22;2.60;;;;;;;7.73;100.00;100194.50;5256938;28;20029;-69
2023/01/14 10:15:21;;;;;;;9.30;2.90;;;;;;;7.74;100.00;100179.56;5242430;28;20037;-68
2023/01/14 10:18:00;;;;;;;6.70;2.67;;;;;;;7.76;100.00;100163.56;5249571;28;20042;-68
2023/01/14 10:20:50;;;;;;;8.60;3.03;;;;;;;7.77;100.00;100156.94;5241940;28;20025;-68
2023/01/14 10:23:43;;;;;;;5.63;2.58;;;;;;;7.83;100.00;100144.72;5241172;28;20064;-69
2023/01/14 10:26:19;;;;;;;10.23;3.65;;;;;;;7.90;100.00;100152.69;5245320;28;20052;-68
2023/01/14 10:28:59;;;;;;;9.35;6.45;;;;;;;7.95;100.00;100138.84;5256951;28;20033;-70
2023/01/14 10:31:33;;;;;;;6.53;3.00;;;;;;;7.99;100.00;100125.28;5240214;28;20094;-68
2023/01/14 10:34:05;;;;;;;7.95;2.25;;;;;;;7.98;100.00;100120.88;5253512;28;20512;-70
2023/01/14 10:36:37;;;;;;;4.90;2.20;;;;;;;8.02;100.00;100114.47;5260581;28;20116;-70
2023/01/14 10:39:12;;;;;;;6.18;3.42;;;;;;;8.01;100.00;100103.72;5240260;28;20114;-69
2023/01/14 10:41:50;;;;;;;9.60;5.57;;;;;;;8.05;100.00;100105.63;5241395;28;20025;-70
2023/01/14 10:44:24;;;;;;;6.43;2.63;;;;;;;8.05;100.00;100096.47;5240096;28;20021;-70
2023/01/14 10:47:24;;;;;;;7.25;2.30;;;;;;;8.07;100.00;100099.78;5256817;28;20472;-69
2023/01/14 10:50:00;;;;;;;8.23;4.47;;;;;;;8.11;100.00;100081.53;5259604;28;20435;-71
2023/01/14 10:52:32;;;;;;;;;;;;;;;8.16;100.00;100066.84;5259865;28;20057;-70
2023/01/14 10:55:13;;;;;;;5.50;2.97;;;;;;;8.20;100.00;100068.72;5260078;28;19912;-70
2023/01/14 10:57:53;;;;;;;5.50;1.92;;;;;;;8.21;100.00;100062.09;5260105;28;20476;-68
2023/01/14 11:00:37;;;;;;;6.43;2.63;;;;;;;8.26;100.00;100044.63;5260896;28;20029;-69
2023/01/14 11:03:25;;;;;;;6.75;5.07;;;;;;;8.25;100.00;100027.22;5271639;28;20020;-69
2023/01/14 11:06:07;;;;;;;4.35;2.38;;;;;;;8.28;100.00;100023.03;5271299;28;20067;-70
2023/01/14 11:08:48;;;;;;;5.85;2.70;;;;;;;8.30;100.00;100017.22;5251313;28;20041;-70
2023/01/14 11:11:22;;;;;;;4.10;2.00;;;;;;;8.32;100.00;100007.53;5258970;28;20025;-70
2023/01/14 11:13:54;;;;;;;3.63;2.08;;;;;;;8.36;100.00;99996.69;5261070;28;20353;-71
2023/01/14 11:16:30;;;;;;;2.90;1.90;;;;;;;8.42;100.00;100012.16;5262143;28;20053;-71
2023/01/14 11:19:21;;;;;;;2.15;1.40;;;;;;;8.44;100.00;99993.34;5262584;28;20393;-71
2023/01/14 11:21:59;;;;;;;3.05;1.65;;;;;;;8.43;100.00;99998.03;5261114;28;20028;-70
2023/01/14 11:24:38;;;;;;;2.42;1.70;;;;;;;8.46;100.00;99985.56;5261871;28;20052;-70
2023/01/14 11:27:17;;;;;;;5.63;1.70;;;;;;;8.45;100.00;99972.88;5260646;28;20108;-70
2023/01/14 11:29:57;;;;;;;7.05;6.35;;;;;;;8.47;100.00;99957.63;5261933;28;20013;-71
2023/01/14 11:32:40;;;;;;;3.17;1.40;;;;;;;8.47;100.00;99974.22;5261964;28;20017;-71
2023/01/14 11:35:39;;;;;;;2.95;1.58;;;;;;;8.62;100.00;99961.31;5261338;28;20546;-71
2023/01/14 11:38:21;;;;;;;2.50;1.30;;;;;;;8.57;100.00;99947.56;5260934;28;20496;-71
2023/01/14 11:44:33;;;;;;;1.75;1.40;;;;;;;8.61;100.00;99932.00;5266318;28;20037;-75
2023/01/14 11:47:13;;;;;;;1.92;1.27;;;;;;;8.66;100.00;99943.81;5267690;28;20025;-73
2023/01/14 11:49:45;;;;;;;2.88;1.35;;;;;;;8.61;100.00;99932.81;5265934;28;20049;-71
2023/01/14 11:52:19;;;;;;;3.05;1.45;;;;;;;8.64;100.00;99914.81;5264307;28;20067;-72
2023/01/14 11:54:52;;;;;;;2.30;1.27;;;;;;;8.64;100.00;99923.13;5276086;28;20018;-72
2023/01/14 11:57:25;;;;;;;1.92;1.38;;;;;;;8.62;100.00;99917.91;5265214;28;20055;-72
2023/01/14 11:59:56;;;;;;;3.08;1.35;;;;;;;8.61;100.00;99916.25;5266161;28;20113;-72
2023/01/14 12:02:34;;;;;;;2.25;1.30;;;;;;;8.61;100.00;99888.59;5265639;28;20131;-69
2023/01/14 12:05:19;;;;;;;1.90;1.30;;;;;;;8.63;100.00;99880.03;5266131;28;20466;-69
2023/01/14 12:07:54;;;;;;;3.38;1.23;;;;;;;8.68;100.00;99891.00;5267008;28;20029;-71
2023/01/14 12:10:30;;;;;;;1.77;1.50;;;;;;;8.68;100.00;99888.25;5273081;28;20016;-71
2023/01/14 12:19:14;;;;;;;1.40;1.17;;;;;;;8.77;100.00;99846.91;5283462;28;20037;-71
2023/01/14 12:22:24;;;;;;;2.47;1.13;;;;;;;8.83;100.00;99851.25;5283076;28;20021;-71
2023/01/14 12:25:07;;;;;;;1.75;1.20;;;;;;;8.80;100.00;99835.25;5261420;28;20048;-71
2023/01/14 12:27:50;;;;;;;2.50;1.13;;;;;;;8.80;100.00;99818.69;5284961;28;20173;-71
2023/01/14 12:30:25;;;;;;;1.45;1.13;;;;;;;8.81;100.00;99817.53;5283188;28;20045;-70
2023/01/14 12:33:02;;;;;;;2.33;1.25;;;;;;;8.80;100.00;99802.91;5276654;28;20051;-69
2023/01/14 12:35:54;;;;;;;2.88;1.90;;;;;;;8.81;100.00;99798.19;5279920;28;20049;-69
2023/01/14 12:47:40;;;;;;;2.00;1.20;;;;;;;8.86;100.00;99756.63;5286373;28;20028;-71
2023/01/14 12:50:15;;;;;;;1.20;1.10;;;;;;;8.89;100.00;99743.00;5286128;28;20080;-72
2023/01/14 12:52:52;;;;;;;2.17;1.00;;;;;;;8.91;100.00;99737.16;5285792;28;20496;-71
2023/01/14 12:55:41;;;;;;;2.22;1.92;;;;;;;8.93;100.00;99732.16;5271684;28;20409;-71
2023/01/14 12:58:23;;;;;;;1.90;1.70;;;;;;;8.95;100.00;99724.38;5265432;28;20075;-71
2023/01/14 13:00:59;;;;;;;2.03;1.20;;;;;;;8.97;100.00;99724.88;5266248;28;20087;-72
2023/01/14 13:03:43;;;;;;;2.25;1.80;;;;;;;8.96;100.00;99719.66;5288173;28;20090;-71
2023/01/14 13:06:22;;;;;;;3.60;1.23;;;;;;;9.01;100.00;99701.03;5271831;28;20053;-72
2023/01/14 13:08:57;;;;;;;1.90;1.30;;;;;;;9.02;100.00;99694.34;5265951;28;20028;-71
2023/01/14 13:11:39;;;;;;;2.28;1.70;;;;;;;9.06;100.00;99689.84;5263957;28;20025;-71
2023/01/14 13:14:38;;;;;;;1.33;1.23;;;;;;;9.06;100.00;99684.31;5263016;28;20482;-69
2023/01/14 13:17:21;;;;;;;1.52;1.13;;;;;;;9.05;100.00;99681.84;5262626;28;20048;-69
2023/01/14 13:19:53;;;;;;;3.75;3.13;;;;;;;9.11;100.00;99687.00;5260182;28;20103;-70
2023/01/14 13:22:52;;;;;;;2.17;1.50;;;;;;;-145.79;93.12;76917.34;5263955;28;20017;-68
2023/01/14 13:25:35;;;;;;;3.03;1.67;;;;;;;-145.79;93.30;76910.97;5258494;28;20029;-69
2023/01/14 13:28:10;;;;;;;2.55;1.67;;;;;;;-145.79;93.51;76906.75;5262214;28;20037;-69
2023/01/14 13:30:45;;;;;;;2.78;2.00;;;;;;;-145.79;94.00;76902.50;5262790;28;20139;-68
2023/01/14 13:33:24;;;;;;;3.40;2.50;;;;;;;-145.79;94.24;76915.22;5262986;28;20112;-70
2023/01/14 13:36:28;;;;;;;3.42;2.13;;;;;;;-145.79;94.28;76889.78;5268070;28;20025;-69
2023/01/14 13:39:01;;;;;;;3.10;1.60;;;;;;;-145.79;94.58;76881.31;5262236;28;20103;-71
2023/01/14 13:41:35;;;;;;;1.92;0.98;;;;;;;-145.79;94.76;76872.84;5262348;28;20044;-69
2023/01/14 13:44:25;;;;;;;2.03;1.33;;;;;;;-145.79;94.39;76868.59;5271238;28;20543;-70
2023/01/14 13:47:05;;;;;;;3.45;1.10;;;;;;;-145.79;94.36;76881.31;5262861;28;20033;-69
2023/01/14 13:49:41;;;;;;;1.60;1.10;;;;;;;-145.79;94.54;76877.06;5263310;28;20029;-69
2023/01/14 13:52:16;;;;;;;2.60;1.30;;;;;;;-145.79;94.68;76874.94;5273146;28;20033;-69
2023/01/14 13:55:19;;;;;;;1.55;1.42;;;;;;;-145.79;94.85;76868.59;5261031;28;20464;-71
2023/01/14 13:57:54;;;;;;;1.85;1.70;;;;;;;-145.79;95.15;76851.63;5262715;28;20021;-70
2023/01/14 14:00:34;;;;;;;2.43;1.30;;;;;;;-145.79;95.53;76847.41;5263176;28;20090;-70
2023/01/14 14:03:34;;;;;;;1.75;1.25;;;;;;;-145.79;95.31;76843.16;5262070;28;20017;-70
2023/01/14 14:06:21;;;;;;;3.83;2.78;;;;;;;-145.79;95.52;76834.69;5262284;28;20053;-70
2023/01/14 14:08:57;;;;;;;1.13;1.02;;;;;;;-145.79;95.86;76826.22;5271954;28;20037;-70
2023/01/14 14:11:50;;;;;;;2.00;1.48;;;;;;;-145.79;95.61;76826.22;5282597;28;20028;-70
2023/01/14 14:14:35;;;;;;;2.72;2.08;;;;;;;-145.79;95.99;76813.50;5267431;28;20083;-69
2023/01/14 14:17:42;;;;;;;2.13;1.10;;;;;;;-145.79;95.75;76811.38;5271967;28;20078;-70
2023/01/14 14:20:16;;;;;;;3.00;1.50;;;;;;;-145.79;96.13;76805.00;5262602;28;20427;-70
2023/01/14 14:22:57;;;;;;;2.53;1.63;;;;;;;-145.79;96.25;76805.00;5261450;28;20032;-70
2023/01/14 14:25:39;;;;;;;2.08;1.10;;;;;;;-145.79;96.83;76807.13;5262270;28;20025;-69
2023/01/14 14:28:20;;;;;;;1.30;1.20;;;;;;;-145.79;96.44;76796.53;5270874;28;20025;-69
2023/01/14 14:30:59;;;;;;;0.98;0.98;;;;;;;-145.79;97.10;76792.31;5259192;28;20024;-69
2023/01/14 14:33:40;;;;;;;2.08;1.25;;;;;;;-145.79;96.72;76783.81;5264797;28;20028;-68
2023/01/14 14:36:21;;;;;;;1.30;1.20;;;;;;;-145.79;96.82;76779.59;5261789;28;20024;-69
2023/01/14 14:38:55;;;;;;;1.65;1.25;;;;;;;-145.79;97.01;76773.22;5280263;28;20029;-69
2023/01/14 14:41:33;;;;;;;1.88;1.33;;;;;;;-145.79;97.12;76758.38;5270441;28;20033;-69
2023/01/14 14:44:15;;;;;;;1.20;1.05;;;;;;;-145.79;97.06;76758.38;5261781;28;20025;-70
2023/01/14 14:46:47;;;;;;;0.85;0.82;;;;;;;-145.79;97.16;76758.38;5262258;28;20057;-69
2023/01/14 14:49:26;;;;;;;3.72;3.35;;;;;;;-145.79;97.14;76741.44;5266920;28;20055;-71
2023/01/14 14:52:10;;;;;;;1.17;1.08;;;;;;;-145.79;97.09;76739.31;5281978;28;20626;-69
2023/01/14 14:54:43;;;;;;;1.52;1.25;;;;;;;-145.79;97.15;76732.97;5263250;28;20438;-69
2023/01/14 14:57:21;;;;;;;2.22;2.03;;;;;;;-145.79;97.07;76728.72;5260545;28;20103;-69
2023/01/14 15:00:00;;;;;;;2.47;1.30;;;;;;;-145.79;96.99;76732.97;5265327;28;20361;-69
2023/01/14 15:02:46;;;;;;;2.22;1.65;;;;;;;-145.79;96.80;76724.47;5274367;28;20115;-69
2023/01/14 15:05:38;;;;;;;2.28;1.80;;;;;;;-145.79;97.38;76724.47;5257244;28;20052;-69
2023/01/14 15:08:14;;;;;;;1.58;1.48;;;;;;;-145.79;96.91;76724.47;5267601;28;20036;-73
2023/01/14 15:10:46;;;;;;;2.17;1.88;;;;;;;-145.79;96.84;76720.25;5283363;28;20537;-72
2023/01/14 15:13:29;;;;;;;1.70;1.25;;;;;;;-145.79;96.89;76703.28;5270538;28;20033;-73
2023/01/14 15:16:24;;;;;;;1.98;1.30;;;;;;;-145.79;97.00;76696.94;5262683;28;20166;-70
2023/01/14 15:18:57;;;;;;;1.58;1.20;;;;;;;-145.79;96.72;76696.94;5276521;28;20467;-70
2023/01/14 15:21:36;;;;;;;2.65;1.40;;;;;;;-145.79;96.36;76694.81;5282400;28;20112;-71
2023/01/14 15:24:16;;;;;;;3.70;1.73;;;;;;;-145.79;96.25;76696.94;5261958;28;20025;-71
2023/01/14 15:26:49;;;;;;;1.35;1.25;;;;;;;-145.79;96.75;76690.56;5262832;28;20036;-71
2023/01/14 15:29:27;;;;;;;2.33;1.48;;;;;;;-145.79;97.09;76699.06;5265938;28;20090;-71
2023/01/14 15:32:45;;;;;;;1.73;1.50;;;;;;;-145.79;97.15;76696.94;5265859;28;20188;-72
2023/01/14 15:35:23;;;;;;;2.20;1.90;;;;;;;-145.79;97.10;76688.44;5274241;28;20048;-71
2023/01/14 15:37:57;;;;;;;2.67;1.60;;;;;;;-145.79;97.15;76682.09;5287015;28;20028;-72
2023/01/14 15:40:37;;;;;;;1.60;1.50;;;;;;;-145.79;97.01;76677.84;5269974;28;20029;-72
2023/01/14 15:43:28;;;;;;;1.50;1.40;;;;;;;-145.79;97.12;76677.84;5263935;28;20021;-71
2023/01/14 15:46:16;;;;;;;1.65;1.55;;;;;;;-145.79;97.25;76677.84;5279966;28;20387;-70
2023/01/14 15:48:53;;;;;;;2.17;1.30;;;;;;;-145.79;96.91;76671.50;5278832;28;20381;-70
2023/01/14 15:51:33;;;;;;;1.40;1.23;;;;;;;-145.79;97.38;76673.63;5264334;28;20141;-71
2023/01/14 15:54:28;;;;;;;2.58;1.30;;;;;;;-145.79;97.03;76665.16;5264510;28;20086;-71
2023/01/14 15:57:24;;;;;;;1.30;1.20;;;;;;;-145.79;97.12;76660.91;5264359;28;20070;-72
2023/01/14 16:00:14;;;;;;;1.03;1.00;;;;;;;-145.79;96.62;76656.66;5268799;28;20459;-73
2023/01/14 16:02:45;;;;;;;1.98;1.42;;;;;;;-145.79;97.20;76658.78;5284595;28;20037;-68
2023/01/14 16:05:23;;;;;;;0.90;0.90;;;;;;;-145.79;97.19;76656.66;5285741;28;20518;-68
2023/01/14 16:07:57;;;;;;;1.35;1.10;;;;;;;-145.79;96.82;76654.53;5285448;28;20033;-71
2023/01/14 16:10:29;;;;;;;1.88;1.10;;;;;;;-145.79;96.82;76652.44;5271707;28;20032;-71
2023/01/14 16:13:01;;;;;;;2.90;1.20;;;;;;;-145.79;97.20;76660.91;5264960;28;20115;-71
2023/01/14 16:15:32;;;;;;;1.33;1.10;;;;;;;-145.79;97.36;76648.19;5280909;28;20059;-72
2023/01/14 16:18:15;;;;;;;0.95;0.95;;;;;;;-145.79;96.90;76641.84;5273088;28;20021;-70
2023/01/14 16:20:47;;;;;;;1.10;1.10;;;;;;;-145.79;96.93;76643.94;5264659;28;20106;-69
2023/01/14 16:23:19;;;;;;;1.95;1.40;;;;;;;-145.79;97.20;76643.94;5276518;28;20034;-70
2023/01/14 16:25:50;;;;;;;0.98;0.98;;;;;;;-145.79;97.23;76658.78;5271141;28;20028;-76
2023/01/14 16:28:23;;;;;;;3.20;2.90;;;;;;;-145.79;97.70;76652.44;5286117;28;20029;-75
2023/01/14 16:30:54;;;;;;;1.10;1.10;;;;;;;-145.79;97.78;76650.31;5275830;28;20052;-78
2023/01/14 16:33:26;;;;;;;0.90;0.90;;;;;;;-145.79;97.66;76643.94;5266182;28;20048;-79
2023/01/14 16:35:58;;;;;;;1.15;1.05;;;;;;;-145.79;97.55;76633.34;5264898;28;20048;-77
